KASL/ASL METAR and TAF weather

Enter ICAO airport designator
Station Type Date Time Source
KASL METAR 2020/01/24 15:35 UTC NOAA

KASL 241535Z AUTO 31012G15KT 10SM CLR 07/03 A3016 RMK AO1 T00720031


Station Type Date Time Source
KASL Decoded METAR 2020/01/24 15:35 UTC NOAA

Station name not available
Jan 24, 2020 - 10:35 AM EST / 2020.01.24 1535 UTC
Wind: from the NW (310 degrees) at 14 MPH (12 KT) gusting to 17 MPH (15 KT):0
Visibility: 10 mile(s):0
Sky conditions: clear
Temperature: 45.0 F (7.2 C)
Dew Point: 37.6 F (3.1 C)
Relative Humidity: 75%
Pressure (altimeter): 30.16 in. Hg (1021 hPa)
ob: KASL 241535Z AUTO 31012G15KT 10SM CLR 07/03 A3016 RMK AO1 T00720031
cycle: 15

Station Type Date Time Source
KASL TAF UTC NOAA

Error!

Example: see airport list